Time;durP1;ratioP1;P1;durP2;ratioP2;P2;SDS_P1;SDS_P2;PMS_P1;PMS_P2;Temp;Humidity;BMP_temperature;BMP_pressure;BME280_temperature;BME280_humidity;BME280_pressure;Samples;Min_cycle;Max_cycle;Signal;HPM_P1;HPM_P2
2023/01/05 00:02:19;;;;;;;11.00;2.90;;;8.80;99.90;;;;;;5264649;28;20185;-49
2023/01/05 00:04:50;;;;;;;8.90;3.07;;;8.70;99.90;;;;;;5261681;28;20206;-49
2023/01/05 00:07:20;;;;;;;11.50;3.00;;;8.70;99.90;;;;;;5263196;28;20174;-48
2023/01/05 00:09:51;;;;;;;10.20;2.47;;;8.70;99.90;;;;;;5258138;28;20181;-50
2023/01/05 00:23:38;;;;;;;4.47;2.10;;;8.80;99.90;;;;;;5260715;28;20967;-48
2023/01/05 00:26:08;;;;;;;9.03;2.50;;;8.80;99.90;;;;;;5263106;28;20436;-49
2023/01/05 00:28:39;;;;;;;10.07;2.80;;;8.70;99.90;;;;;;5263449;28;20213;-49
2023/01/05 00:31:10;;;;;;;7.03;2.20;;;8.70;99.90;;;;;;5258521;28;20187;-49
2023/01/05 00:33:40;;;;;;;15.73;2.70;;;8.60;99.90;;;;;;5257695;28;20189;-48
2023/01/05 00:36:11;;;;;;;15.87;3.10;;;8.70;99.90;;;;;;5264907;28;20273;-48
2023/01/05 00:38:41;;;;;;;12.47;2.77;;;8.60;99.90;;;;;;5262074;28;20202;-47
2023/01/05 00:41:12;;;;;;;23.20;3.40;;;8.70;99.90;;;;;;5255185;28;20244;-48
2023/01/05 00:43:43;;;;;;;7.53;2.23;;;8.70;99.90;;;;;;5265966;28;20335;-48
2023/01/05 00:46:13;;;;;;;18.57;3.00;;;8.70;99.90;;;;;;5262738;28;20178;-48
2023/01/05 00:48:44;;;;;;;9.30;3.90;;;8.70;99.90;;;;;;5261484;28;20661;-53
2023/01/05 00:51:14;;;;;;;13.93;3.10;;;8.70;99.90;;;;;;5261473;28;20660;-50
2023/01/05 00:53:47;;;;;;;10.57;2.50;;;8.70;99.90;;;;;;5265726;28;20200;-48
2023/01/05 00:56:18;;;;;;;6.37;2.57;;;8.60;99.90;;;;;;5254124;28;20236;-49
2023/01/05 00:58:53;;;;;;;17.87;3.23;;;8.70;99.90;;;;;;5259315;28;21069;-48
2023/01/05 01:01:24;;;;;;;22.30;3.33;;;8.70;99.90;;;;;;5262097;28;20204;-48
2023/01/05 01:03:55;;;;;;;15.23;3.80;;;8.70;99.90;;;;;;5263391;28;20433;-51
2023/01/05 01:06:27;;;;;;;24.17;3.73;;;8.80;99.90;;;;;;5267651;28;20169;-48
2023/01/05 01:08:58;;;;;;;28.67;4.80;;;8.70;99.90;;;;;;5261368;28;20602;-49
2023/01/05 01:11:29;;;;;;;17.23;3.30;;;8.70;99.90;;;;;;5267157;28;20432;-48
2023/01/05 01:14:00;;;;;;;18.77;2.83;;;8.70;99.90;;;;;;5259855;28;20523;-49
2023/01/05 01:16:31;;;;;;;25.70;3.23;;;8.70;99.90;;;;;;5262939;28;20189;-51
2023/01/05 01:19:02;;;;;;;15.57;3.23;;;8.70;99.90;;;;;;5267452;28;20550;-48
2023/01/05 01:21:33;;;;;;;6.70;2.20;;;8.70;99.90;;;;;;5270719;28;20462;-49
2023/01/05 01:24:03;;;;;;;20.40;3.60;;;8.70;99.90;;;;;;5261684;28;20587;-48
2023/01/05 01:26:34;;;;;;;19.90;3.67;;;8.60;99.90;;;;;;5248897;28;20524;-49
2023/01/05 01:29:05;;;;;;;10.33;3.27;;;8.60;99.90;;;;;;5265440;28;20622;-48
2023/01/05 01:31:36;;;;;;;12.07;3.20;;;8.60;99.90;;;;;;5259587;28;20200;-47
2023/01/05 01:34:06;;;;;;;22.03;3.37;;;8.60;99.90;;;;;;5260010;28;20281;-51
2023/01/05 01:36:37;;;;;;;26.57;4.00;;;8.50;99.90;;;;;;5266364;28;20489;-48
2023/01/05 01:39:11;;;;;;;28.57;3.53;;;8.50;99.90;;;;;;5266846;28;20198;-48
2023/01/05 01:41:42;;;;;;;16.37;4.00;;;8.50;99.90;;;;;;5262018;28;20206;-49
2023/01/05 01:44:53;;;;;;;21.13;4.23;;;8.40;99.90;;;;;;5262994;28;20435;-48
2023/01/05 01:47:37;;;;;;;24.77;4.40;;;8.50;99.90;;;;;;5257080;28;20182;-49
2023/01/05 01:50:23;;;;;;;17.87;3.47;;;8.50;99.90;;;;;;5255636;28;20971;-48
2023/01/05 01:52:59;;;;;;;28.47;3.60;;;8.40;99.90;;;;;;5251418;28;20429;-51
2023/01/05 01:55:31;;;;;;;25.90;3.80;;;8.40;99.90;;;;;;5274960;28;20428;-49
2023/01/05 01:58:05;;;;;;;7.83;2.80;;;8.40;99.90;;;;;;5266986;28;20451;-51
2023/01/05 02:00:37;;;;;;;12.60;3.00;;;8.50;99.90;;;;;;5267115;28;20910;-50
2023/01/05 02:03:08;;;;;;;18.63;3.33;;;8.60;99.90;;;;;;5260525;28;20519;-51
2023/01/05 02:05:39;;;;;;;23.03;3.53;;;8.60;99.90;;;;;;5257514;28;20431;-51
2023/01/05 02:08:15;;;;;;;23.23;3.70;;;8.60;99.90;;;;;;5266297;28;20535;-53
2023/01/05 02:11:17;;;;;;;20.30;3.27;;;8.60;99.90;;;;;;5243911;28;20185;-51
2023/01/05 02:13:57;;;;;;;6.20;2.37;;;8.60;99.90;;;;;;5253109;28;20431;-52
2023/01/05 02:16:52;;;;;;;22.67;3.83;;;8.50;99.90;;;;;;5260092;28;20472;-51
2023/01/05 02:19:29;;;;;;;19.33;3.40;;;8.50;99.90;;;;;;5256043;28;20451;-50
2023/01/05 02:22:27;;;;;;;19.00;3.70;;;8.60;99.90;;;;;;5267158;28;20477;-53
2023/01/05 02:25:32;;;;;;;16.10;3.47;;;8.70;99.90;;;;;;5283068;27;20980;-51
2023/01/05 02:28:20;;;;;;;7.90;2.83;;;8.70;99.90;;;;;;5259262;28;20451;-51
2023/01/05 02:31:11;;;;;;;14.97;3.70;;;8.70;99.90;;;;;;5259885;28;20507;-50
2023/01/05 02:34:08;;;;;;;15.50;2.57;;;8.60;99.90;;;;;;5262988;28;20795;-50
2023/01/05 02:37:03;;;;;;;12.37;3.23;;;8.70;99.90;;;;;;5261838;28;20569;-50
2023/01/05 02:39:45;;;;;;;12.43;3.07;;;8.60;99.90;;;;;;5264398;28;20550;-52
2023/01/05 02:42:23;;;;;;;11.73;3.13;;;8.70;99.90;;;;;;5259431;28;20467;-52
2023/01/05 02:44:54;;;;;;;18.03;2.00;;;8.80;99.90;;;;;;5274202;28;20429;-51
2023/01/05 02:47:24;;;;;;;5.43;1.83;;;8.90;99.90;;;;;;5260082;28;20500;-49
2023/01/05 02:50:01;;;;;;;9.00;2.40;;;8.90;99.90;;;;;;5260858;28;20177;-50
2023/01/05 02:52:53;;;;;;;9.20;2.47;;;9.00;99.90;;;;;;5263242;28;20174;-52
2023/01/05 02:55:40;;;;;;;11.57;2.50;;;9.00;99.90;;;;;;5261936;28;20447;-51
2023/01/05 02:58:47;;;;;;;8.33;2.67;;;9.00;99.90;;;;;;5258925;28;20455;-49
2023/01/05 03:01:26;;;;;;;6.30;2.07;;;9.20;99.90;;;;;;5256956;28;21054;-50
2023/01/05 03:04:00;;;;;;;13.90;2.33;;;9.20;99.90;;;;;;5256127;28;20435;-51
2023/01/05 03:06:46;;;;;;;6.03;1.80;;;9.50;99.90;;;;;;5262322;28;20485;-50
2023/01/05 03:09:24;;;;;;;10.63;1.93;;;9.60;99.90;;;;;;5277928;28;20470;-51
2023/01/05 03:15:02;;;;;;;4.63;1.70;;;9.60;99.90;;;;;;5257386;28;20470;-50
2023/01/05 03:17:43;;;;;;;3.93;1.50;;;9.70;99.90;;;;;;5260649;28;20469;-51
2023/01/05 03:20:17;;;;;;;5.00;1.63;;;9.70;99.90;;;;;;5261517;28;20813;-52
2023/01/05 03:37:38;;;;;;;1.53;1.40;;;9.90;99.90;;;;;;5264180;28;20950;-52
2023/01/05 03:40:15;;;;;;;4.40;1.57;;;9.90;99.90;;;;;;5253518;28;20543;-51
2023/01/05 03:42:46;;;;;;;10.40;2.30;;;9.90;99.90;;;;;;5267376;28;20795;-50
2023/01/05 03:45:18;;;;;;;5.30;1.67;;;9.90;99.90;;;;;;5246506;28;20436;-50
2023/01/05 03:47:49;;;;;;;15.93;2.93;;;9.80;99.90;;;;;;5263993;28;20456;-50
2023/01/05 03:50:20;;;;;;;9.63;1.83;;;9.90;99.90;;;;;;5264317;28;20432;-50
2023/01/05 03:52:51;;;;;;;11.23;2.10;;;9.90;99.90;;;;;;5279553;28;20440;-50
2023/01/05 03:55:21;;;;;;;4.07;1.73;;;9.80;99.90;;;;;;5265296;28;20186;-53
2023/01/05 03:57:52;;;;;;;6.10;1.63;;;9.70;99.90;;;;;;5264025;28;20216;-51
2023/01/05 04:00:24;;;;;;;6.73;1.50;;;9.60;99.90;;;;;;5257348;28;20301;-49
2023/01/05 04:02:55;;;;;;;6.40;1.73;;;9.50;99.90;;;;;;5258081;28;20235;-51
2023/01/05 04:05:25;;;;;;;14.50;1.57;;;9.40;99.90;;;;;;5255244;28;20447;-50
2023/01/05 04:07:56;;;;;;;4.50;1.50;;;9.40;99.90;;;;;;5263865;28;20293;-51
2023/01/05 04:10:26;;;;;;;3.30;1.13;;;9.30;99.90;;;;;;5260539;28;20182;-50
2023/01/05 04:12:57;;;;;;;8.27;2.23;;;9.30;99.90;;;;;;5256819;28;20285;-52
2023/01/05 04:15:28;;;;;;;12.43;1.77;;;9.20;99.90;;;;;;5260470;28;20212;-52
2023/01/05 04:17:58;;;;;;;2.93;1.40;;;9.20;99.90;;;;;;5259597;28;20206;-51
2023/01/05 04:20:29;;;;;;;12.27;1.87;;;9.00;99.90;;;;;;5249591;28;20189;-50
2023/01/05 04:23:00;;;;;;;6.57;1.73;;;8.90;99.90;;;;;;5260934;28;20177;-53
2023/01/05 04:25:30;;;;;;;5.80;1.40;;;9.00;99.90;;;;;;5252932;28;20579;-52
2023/01/05 04:28:01;;;;;;;3.20;1.77;;;8.90;99.90;;;;;;5262509;28;20210;-50
2023/01/05 04:30:31;;;;;;;3.23;1.23;;;8.90;99.90;;;;;;5262039;28;20211;-53
2023/01/05 04:33:02;;;;;;;5.40;1.70;;;8.90;99.90;;;;;;5260932;28;20189;-52
2023/01/05 04:35:33;;;;;;;8.00;1.70;;;8.90;99.90;;;;;;5266615;28;20189;-51
2023/01/05 04:38:03;;;;;;;4.57;0.97;;;8.90;99.90;;;;;;5262205;28;20256;-50
2023/01/05 04:40:34;;;;;;;2.50;1.40;;;8.90;99.90;;;;;;5263657;28;20221;-50
2023/01/05 04:43:05;;;;;;;7.00;1.37;;;8.90;99.90;;;;;;5262641;28;20182;-53
2023/01/05 04:45:36;;;;;;;3.60;1.30;;;8.80;99.90;;;;;;5266261;28;20646;-52
2023/01/05 04:48:06;;;;;;;1.80;1.10;;;8.90;99.90;;;;;;5268317;28;20485;-52
2023/01/05 04:50:37;;;;;;;6.23;1.80;;;8.80;99.90;;;;;;5267600;28;20586;-50
2023/01/05 04:53:08;;;;;;;7.90;1.70;;;8.80;99.90;;;;;;5266801;28;20188;-53
2023/01/05 04:55:39;;;;;;;7.73;1.80;;;8.70;99.90;;;;;;5281751;28;20182;-51
2023/01/05 04:58:10;;;;;;;1.47;1.17;;;8.70;99.90;;;;;;5266363;28;21043;-52
2023/01/05 05:00:41;;;;;;;5.27;2.00;;;8.70;99.90;;;;;;5262692;28;20201;-52
2023/01/05 05:03:11;;;;;;;6.00;1.40;;;8.70;99.90;;;;;;5271730;28;20256;-51
2023/01/05 05:05:42;;;;;;;3.93;1.37;;;8.80;99.90;;;;;;5264406;28;20531;-51
2023/01/05 05:08:13;;;;;;;2.77;1.57;;;8.90;99.90;;;;;;5268277;28;20200;-53
2023/01/05 05:10:43;;;;;;;9.00;1.60;;;8.80;99.90;;;;;;5262576;28;20189;-52
2023/01/05 05:13:14;;;;;;;4.50;1.30;;;8.70;99.90;;;;;;5267436;28;20432;-52
2023/01/05 05:15:45;;;;;;;1.43;1.33;;;8.80;99.90;;;;;;5262968;28;20180;-52
2023/01/05 05:18:15;;;;;;;1.23;0.77;;;8.70;99.90;;;;;;5258784;28;20289;-53
2023/01/05 05:20:48;;;;;;;1.63;0.87;;;8.80;99.90;;;;;;5262530;28;20605;-51
2023/01/05 05:23:19;;;;;;;2.43;0.90;;;8.80;99.90;;;;;;5252214;28;20184;-51
2023/01/05 05:25:50;;;;;;;7.07;1.03;;;8.80;99.90;;;;;;5255397;28;20427;-53
2023/01/05 05:28:26;;;;;;;1.40;1.10;;;8.70;99.90;;;;;;5265050;28;20624;-53
2023/01/05 05:30:57;;;;;;;1.80;1.00;;;8.80;99.90;;;;;;5261175;28;20442;-52
2023/01/05 05:33:28;;;;;;;3.53;1.37;;;8.80;99.90;;;;;;5258777;28;20428;-54
2023/01/05 05:35:58;;;;;;;6.23;1.57;;;8.70;99.90;;;;;;5267853;28;20189;-54
2023/01/05 05:38:29;;;;;;;3.10;1.30;;;8.80;99.90;;;;;;5262094;28;20728;-52
2023/01/05 05:41:00;;;;;;;3.63;1.90;;;8.80;99.90;;;;;;5260250;28;20198;-53
2023/01/05 05:43:30;;;;;;;3.47;1.50;;;8.80;99.90;;;;;;5269422;28;20181;-53
2023/01/05 05:46:01;;;;;;;6.43;1.43;;;8.80;99.90;;;;;;5263350;28;21238;-53
2023/01/05 05:48:32;;;;;;;2.47;1.03;;;8.70;99.90;;;;;;5264826;28;20193;-53
2023/01/05 05:51:03;;;;;;;6.33;1.90;;;8.70;99.90;;;;;;5228975;28;20438;-54
2023/01/05 05:53:33;;;;;;;5.27;1.77;;;8.70;99.90;;;;;;5263415;28;20301;-51
2023/01/05 05:56:04;;;;;;;6.13;2.27;;;8.70;99.90;;;;;;5264309;28;20216;-51
2023/01/05 05:58:35;;;;;;;9.83;1.47;;;8.60;99.90;;;;;;5255474;28;20226;-53
2023/01/05 06:01:06;;;;;;;4.80;1.83;;;8.70;99.90;;;;;;5261551;28;20508;-53
2023/01/05 06:03:36;;;;;;;8.43;2.17;;;8.60;99.90;;;;;;5256096;28;20189;-50
2023/01/05 06:06:07;;;;;;;4.20;2.20;;;8.60;99.90;;;;;;5258746;28;20548;-53
2023/01/05 06:08:38;;;;;;;5.23;1.87;;;8.60;99.90;;;;;;5256782;28;20608;-52
2023/01/05 06:11:09;;;;;;;1.67;1.10;;;8.60;99.90;;;;;;5264729;28;20631;-54
2023/01/05 06:13:42;;;;;;;0.83;0.83;;;8.40;99.90;;;;;;5267542;28;20193;-52
2023/01/05 06:16:19;;;;;;;4.80;1.17;;;8.40;99.90;;;;;;5256313;28;20173;-52
2023/01/05 06:18:49;;;;;;;2.33;1.07;;;8.40;99.90;;;;;;5273304;28;20452;-53
2023/01/05 06:21:20;;;;;;;7.87;1.10;;;8.40;99.90;;;;;;5259127;28;20485;-52
2023/01/05 06:23:51;;;;;;;1.10;1.00;;;8.20;99.90;;;;;;5265138;28;20584;-53
2023/01/05 06:26:22;;;;;;;1.50;0.80;;;8.20;99.90;;;;;;5265105;28;20481;-51
2023/01/05 06:28:52;;;;;;;2.73;1.00;;;8.20;99.90;;;;;;5253873;28;20198;-51
2023/01/05 06:31:23;;;;;;;3.33;0.70;;;8.20;99.90;;;;;;5262121;28;20264;-51
2023/01/05 06:33:54;;;;;;;1.27;0.63;;;8.10;99.90;;;;;;5265637;28;20185;-51
2023/01/05 06:36:24;;;;;;;5.30;0.77;;;8.00;99.90;;;;;;5278685;27;20615;-48
2023/01/05 06:38:55;;;;;;;3.07;0.70;;;8.00;99.90;;;;;;5259866;28;20700;-50
2023/01/05 06:41:25;;;;;;;0.60;0.60;;;8.00;99.90;;;;;;5262195;28;20277;-50
2023/01/05 06:43:56;;;;;;;1.93;0.57;;;7.80;99.90;;;;;;5257684;28;20235;-49
2023/01/05 06:46:26;;;;;;;6.37;1.60;;;7.80;99.90;;;;;;5259939;28;20178;-51
2023/01/05 06:48:57;;;;;;;1.00;0.70;;;7.90;99.90;;;;;;5263685;28;20284;-48
2023/01/05 06:51:28;;;;;;;0.80;0.70;;;7.90;99.90;;;;;;5262044;28;20207;-52
2023/01/05 06:53:58;;;;;;;1.97;0.83;;;7.90;99.90;;;;;;5258704;28;20185;-49
2023/01/05 06:56:29;;;;;;;2.70;1.10;;;8.00;99.90;;;;;;5256029;28;20228;-50
2023/01/05 06:58:59;;;;;;;3.00;0.63;;;7.90;99.90;;;;;;5262051;28;20583;-51
2023/01/05 07:01:30;;;;;;;2.40;0.90;;;7.90;99.90;;;;;;5260935;28;20318;-51
2023/01/05 07:04:01;;;;;;;1.73;0.97;;;7.80;99.90;;;;;;5257397;28;21937;-49
2023/01/05 07:06:34;;;;;;;0.80;0.50;;;7.80;99.90;;;;;;5255902;28;20212;-53
2023/01/05 07:09:05;;;;;;;3.23;1.10;;;7.80;99.90;;;;;;5259291;28;20208;-51
2023/01/05 07:11:35;;;;;;;1.70;1.60;;;7.70;99.90;;;;;;5254223;28;20437;-54
2023/01/05 07:14:06;;;;;;;1.07;0.60;;;7.70;99.90;;;;;;5253351;28;20178;-53
2023/01/05 07:16:37;;;;;;;1.17;0.83;;;7.70;99.90;;;;;;5254861;28;20181;-49
2023/01/05 07:19:09;;;;;;;0.70;0.70;;;7.70;99.90;;;;;;5258515;28;20233;-50
2023/01/05 07:21:39;;;;;;;5.00;1.07;;;7.60;99.90;;;;;;5257787;28;20255;-51
2023/01/05 07:24:10;;;;;;;1.90;1.40;;;7.70;99.90;;;;;;5253524;28;20512;-52
2023/01/05 07:26:40;;;;;;;5.10;0.90;;;7.70;99.90;;;;;;5253591;28;20266;-51
2023/01/05 07:29:11;;;;;;;1.50;0.73;;;7.70;99.90;;;;;;5259761;28;20313;-49
2023/01/05 07:31:42;;;;;;;3.70;0.90;;;7.70;99.90;;;;;;5265913;28;20186;-52
2023/01/05 07:34:12;;;;;;;2.93;0.87;;;7.60;99.90;;;;;;5262887;28;20186;-49
2023/01/05 07:36:43;;;;;;;2.80;1.10;;;7.60;99.90;;;;;;5265746;28;20178;-50
2023/01/05 07:39:14;;;;;;;3.03;0.50;;;7.60;99.90;;;;;;5262692;28;20514;-49
2023/01/05 07:41:45;;;;;;;2.30;0.60;;;7.50;99.90;;;;;;5263995;28;20697;-53
2023/01/05 07:44:17;;;;;;;1.90;0.60;;;7.50;99.90;;;;;;5266236;28;20971;-50
2023/01/05 07:46:47;;;;;;;0.87;0.80;;;7.50;99.90;;;;;;5262974;28;20722;-50
2023/01/05 07:49:18;;;;;;;0.50;0.50;;;7.40;99.90;;;;;;5265004;28;20551;-51
2023/01/05 07:51:49;;;;;;;2.00;0.77;;;7.50;99.90;;;;;;5256884;28;20653;-50
2023/01/05 07:54:20;;;;;;;0.83;0.83;;;7.40;99.90;;;;;;5260649;28;20185;-50
2023/01/05 07:56:51;;;;;;;0.50;0.50;;;7.40;99.90;;;;;;5261903;28;20217;-49
2023/01/05 07:59:21;;;;;;;0.53;0.53;;;7.40;99.90;;;;;;5262871;28;20625;-52
2023/01/05 08:01:52;;;;;;;0.97;0.90;;;7.40;99.90;;;;;;5259348;28;20611;-52
2023/01/05 08:04:23;;;;;;;0.50;0.50;;;7.30;99.90;;;;;;5259399;28;20189;-52
2023/01/05 08:06:53;;;;;;;0.30;0.30;;;7.30;99.90;;;;;;5269763;28;20272;-52
2023/01/05 08:12:13;;;;;;;2.77;1.70;;;7.30;99.90;;;;;;5259797;28;20177;-52
2023/01/05 08:14:44;;;;;;;4.30;0.70;;;7.20;99.90;;;;;;5263224;28;20436;-54
2023/01/05 08:17:14;;;;;;;1.27;0.97;;;7.20;99.90;;;;;;5264096;28;20201;-51
2023/01/05 08:19:45;;;;;;;1.70;0.63;;;7.20;99.90;;;;;;5267082;28;20266;-53
2023/01/05 08:22:16;;;;;;;2.33;0.67;;;7.20;99.90;;;;;;5261232;28;20277;-52
2023/01/05 08:24:47;;;;;;;1.93;0.43;;;7.20;99.90;;;;;;5267722;28;20428;-54
2023/01/05 08:27:17;;;;;;;0.40;0.40;;;7.20;99.90;;;;;;5266235;28;20594;-51
2023/01/05 08:29:48;;;;;;;0.33;0.33;;;7.20;99.90;;;;;;5264117;28;20209;-52
2023/01/05 08:32:18;;;;;;;0.77;0.77;;;7.20;99.90;;;;;;5265258;28;20190;-53
2023/01/05 08:34:49;;;;;;;0.30;0.30;;;7.30;99.90;;;;;;5267860;28;20284;-52
2023/01/05 08:37:20;;;;;;;1.83;1.10;;;7.30;99.90;;;;;;5264543;28;20225;-52
2023/01/05 08:39:50;;;;;;;0.77;0.70;;;7.40;99.90;;;;;;5274858;28;20661;-51
2023/01/05 08:42:21;;;;;;;1.63;0.60;;;7.40;99.90;;;;;;5266396;28;20209;-51
2023/01/05 08:44:52;;;;;;;3.93;0.40;;;7.40;99.90;;;;;;5266730;28;20178;-52
2023/01/05 08:47:22;;;;;;;1.03;0.50;;;7.50;99.90;;;;;;5261819;28;20265;-52
2023/01/05 08:49:53;;;;;;;0.30;0.30;;;7.40;99.90;;;;;;5260476;28;20261;-52
2023/01/05 08:52:23;;;;;;;2.50;0.60;;;7.50;99.90;;;;;;5260046;28;20209;-52
2023/01/05 08:54:54;;;;;;;1.13;1.03;;;7.70;99.90;;;;;;5259233;28;20182;-52
2023/01/05 08:57:25;;;;;;;1.80;0.53;;;7.80;99.90;;;;;;5260438;28;20205;-54
2023/01/05 08:59:55;;;;;;;0.50;0.50;;;7.90;99.90;;;;;;5266470;28;20197;-51
2023/01/05 09:02:26;;;;;;;0.50;0.30;;;8.10;99.90;;;;;;5268584;28;20210;-51
2023/01/05 09:04:56;;;;;;;1.27;0.90;;;8.00;99.90;;;;;;5257828;28;20486;-51
2023/01/05 09:07:27;;;;;;;0.40;0.40;;;8.00;99.90;;;;;;5264463;28;20182;-53
2023/01/05 09:09:58;;;;;;;3.23;0.40;;;8.00;99.90;;;;;;5260606;28;20182;-52
2023/01/05 09:12:28;;;;;;;1.23;0.60;;;8.10;99.90;;;;;;5257181;28;20627;-52
2023/01/05 09:14:59;;;;;;;6.30;1.10;;;8.00;99.90;;;;;;5263131;28;20253;-52
2023/01/05 09:17:31;;;;;;;0.33;0.33;;;8.10;99.90;;;;;;5256508;28;20323;-52
2023/01/05 09:20:02;;;;;;;0.50;0.50;;;8.10;99.90;;;;;;5262212;28;20181;-52
2023/01/05 09:22:34;;;;;;;1.90;0.60;;;8.10;99.90;;;;;;5263459;28;20940;-51
2023/01/05 09:25:05;;;;;;;0.50;0.30;;;8.20;99.90;;;;;;5260402;28;20452;-52
2023/01/05 09:27:36;;;;;;;1.07;0.57;;;8.10;99.90;;;;;;5270132;28;20505;-51
2023/01/05 09:30:07;;;;;;;1.13;0.57;;;8.20;99.90;;;;;;5267655;28;20937;-50
2023/01/05 09:32:38;;;;;;;2.20;0.67;;;8.10;99.90;;;;;;5259642;28;20185;-52
2023/01/05 09:35:09;;;;;;;0.70;0.70;;;8.10;99.90;;;;;;5264304;28;20451;-52
2023/01/05 09:37:40;;;;;;;3.03;0.80;;;8.10;99.90;;;;;;5268847;28;20202;-48
2023/01/05 09:40:12;;;;;;;1.20;0.90;;;8.10;99.90;;;;;;5255116;28;20200;-51
2023/01/05 09:42:45;;;;;;;2.17;0.70;;;8.10;99.90;;;;;;5267107;28;20439;-51
2023/01/05 09:45:24;;;;;;;4.47;0.70;;;8.20;99.90;;;;;;5269093;28;20439;-50
2023/01/05 09:47:58;;;;;;;1.33;0.93;;;8.30;99.90;;;;;;5260026;28;20451;-49
2023/01/05 09:50:32;;;;;;;0.93;0.40;;;8.40;99.90;;;;;;5268539;28;20438;-48
2023/01/05 09:53:04;;;;;;;0.87;0.53;;;8.50;99.90;;;;;;5267381;28;20959;-50
2023/01/05 09:55:36;;;;;;;6.43;1.17;;;8.60;99.90;;;;;;5286688;27;20432;-47
2023/01/05 09:58:15;;;;;;;2.60;0.70;;;8.80;99.90;;;;;;5263896;28;20471;-49
2023/01/05 10:01:05;;;;;;;0.83;0.60;;;8.90;99.90;;;;;;5258539;28;20464;-51
2023/01/05 10:03:55;;;;;;;2.10;0.77;;;9.00;99.90;;;;;;5266129;28;20431;-51
2023/01/05 10:06:31;;;;;;;4.03;0.70;;;9.10;99.90;;;;;;5272703;28;20439;-52
2023/01/05 10:09:04;;;;;;;1.53;0.80;;;9.20;99.90;;;;;;5261360;28;20458;-49
2023/01/05 10:14:40;;;;;;;1.40;0.70;;;9.20;99.90;;;;;;5266121;28;20407;-54
2023/01/05 10:17:19;;;;;;;0.80;0.80;;;9.20;99.90;;;;;;5267236;28;20442;-51
2023/01/05 10:19:50;;;;;;;3.70;1.03;;;9.20;99.90;;;;;;5264852;28;20438;-52
2023/01/05 10:22:27;;;;;;;1.43;0.87;;;9.40;99.90;;;;;;5267965;28;20511;-50
2023/01/05 10:25:20;;;;;;;4.27;1.20;;;9.30;99.90;;;;;;5281259;27;20177;-50
2023/01/05 10:28:28;;;;;;;3.70;0.67;;;9.30;99.90;;;;;;5266179;28;20454;-51
2023/01/05 10:31:25;;;;;;;7.33;0.90;;;9.40;99.90;;;;;;5260312;28;21404;-49
2023/01/05 10:34:02;;;;;;;3.93;1.33;;;9.60;99.90;;;;;;5255306;28;20943;-53
2023/01/05 10:37:19;;;;;;;1.93;1.00;;;9.50;99.90;;;;;;5266735;28;20444;-48
2023/01/05 10:40:08;;;;;;;4.03;1.07;;;9.60;99.90;;;;;;5219903;28;20900;-50
2023/01/05 10:42:45;;;;;;;0.70;0.70;;;9.50;99.90;;;;;;5266137;28;20443;-48
2023/01/05 10:45:18;;;;;;;2.40;1.00;;;9.40;99.90;;;;;;5263203;28;20442;-48
2023/01/05 10:47:49;;;;;;;7.03;1.80;;;9.50;99.90;;;;;;5263468;28;20447;-50
2023/01/05 10:50:41;;;;;;;4.67;1.30;;;9.50;99.90;;;;;;5256277;28;20440;-51
2023/01/05 10:53:18;;;;;;;1.90;0.77;;;9.70;99.90;;;;;;5257888;28;20436;-47
2023/01/05 10:56:03;;;;;;;5.07;1.30;;;9.80;99.90;;;;;;5274238;27;20432;-48
2023/01/05 10:58:39;;;;;;;2.77;1.30;;;9.80;99.90;;;;;;5254766;28;20484;-49
2023/01/05 11:01:29;;;;;;;2.43;1.03;;;9.70;99.90;;;;;;5257047;28;20459;-50
2023/01/05 11:04:22;;;;;;;6.50;0.60;;;9.80;99.90;;;;;;5262031;28;20432;-48
2023/01/05 11:07:05;;;;;;;0.77;0.77;;;9.80;99.90;;;;;;5273524;27;20443;-51
2023/01/05 11:09:41;;;;;;;6.90;0.87;;;9.80;99.90;;;;;;5262140;28;20476;-50
2023/01/05 11:12:24;;;;;;;3.50;1.50;;;9.90;99.90;;;;;;5261028;28;20442;-50
2023/01/05 11:14:56;;;;;;;3.60;0.83;;;9.90;99.90;;;;;;5271347;27;20444;-53
2023/01/05 11:17:37;;;;;;;2.40;0.83;;;9.80;99.90;;;;;;5270817;28;20439;-49
2023/01/05 11:20:16;;;;;;;4.73;1.47;;;9.70;99.90;;;;;;5285003;27;20444;-52
2023/01/05 11:22:48;;;;;;;7.00;1.50;;;9.60;99.90;;;;;;5245893;28;20436;-52
2023/01/05 11:25:25;;;;;;;1.20;1.10;;;9.60;99.90;;;;;;5256576;28;20546;-53
2023/01/05 11:28:13;;;;;;;7.53;1.33;;;9.60;99.90;;;;;;5252533;28;20448;-51
2023/01/05 11:30:58;;;;;;;4.30;1.80;;;9.60;99.90;;;;;;5272028;27;21773;-48
2023/01/05 11:33:33;;;;;;;2.67;1.43;;;9.60;99.90;;;;;;5258575;28;20452;-50
2023/01/05 11:36:05;;;;;;;8.60;1.33;;;9.60;99.90;;;;;;5259154;28;20428;-49
2023/01/05 11:38:35;;;;;;;5.57;1.37;;;9.70;99.90;;;;;;5257354;28;21002;-48
2023/01/05 11:41:10;;;;;;;1.23;1.17;;;9.70;99.90;;;;;;5269199;28;20470;-51
2023/01/05 11:43:45;;;;;;;2.53;0.97;;;9.70;99.90;;;;;;5263709;28;20198;-52
2023/01/05 11:46:16;;;;;;;2.20;1.60;;;9.60;99.90;;;;;;5263210;28;21166;-50
2023/01/05 11:48:54;;;;;;;3.23;1.50;;;9.70;99.90;;;;;;5263350;28;20445;-49
2023/01/05 11:51:36;;;;;;;6.93;1.23;;;9.70;99.90;;;;;;5261260;28;20438;-53
2023/01/05 11:54:35;;;;;;;6.13;1.10;;;9.70;99.90;;;;;;5275282;28;20439;-53
2023/01/05 11:57:21;;;;;;;5.70;1.10;;;9.60;99.90;;;;;;5269229;28;20448;-51
2023/01/05 11:59:54;;;;;;;1.50;1.27;;;9.60;99.90;;;;;;5261880;28;20534;-49
2023/01/05 12:02:39;;;;;;;1.20;1.10;;;9.50;99.90;;;;;;5262386;28;20458;-50
2023/01/05 12:05:27;;;;;;;3.10;1.37;;;9.70;99.90;;;;;;5266616;28;20770;-49
2023/01/05 12:08:06;;;;;;;1.50;0.97;;;9.90;99.90;;;;;;5266110;28;20481;-50
2023/01/05 12:11:11;;;;;;;5.03;1.53;;;10.00;99.90;;;;;;5270383;28;20434;-49
2023/01/05 12:14:00;;;;;;;11.10;1.40;;;10.00;99.90;;;;;;5264261;28;20436;-50
2023/01/05 12:16:45;;;;;;;10.57;3.83;;;9.90;99.90;;;;;;5275205;28;20435;-51
2023/01/05 12:19:39;;;;;;;9.73;3.20;;;10.00;99.90;;;;;;5282810;28;20985;-48
2023/01/05 12:22:41;;;;;;;2.17;1.00;;;9.80;99.90;;;;;;5258945;28;20459;-49
2023/01/05 12:25:29;;;;;;;4.10;0.90;;;9.90;99.90;;;;;;5256824;28;20507;-50
2023/01/05 12:28:03;;;;;;;8.90;1.47;;;9.80;99.90;;;;;;5265160;28;20508;-49
2023/01/05 12:31:14;;;;;;;2.17;1.07;;;9.80;99.90;;;;;;5261668;28;20489;-49
2023/01/05 12:34:22;;;;;;;9.13;1.13;;;9.70;99.90;;;;;;5268458;28;20434;-49
2023/01/05 12:37:14;;;;;;;1.90;0.97;;;9.70;99.90;;;;;;5227338;28;20923;-51
2023/01/05 12:40:15;;;;;;;9.17;1.23;;;9.80;99.90;;;;;;5265240;28;20431;-52
2023/01/05 12:43:02;;;;;;;6.80;2.00;;;10.00;99.90;;;;;;5264195;28;21002;-50
2023/01/05 12:46:01;;;;;;;5.50;1.67;;;10.00;99.90;;;;;;5269047;28;20420;-48
2023/01/05 12:48:47;;;;;;;4.73;1.37;;;10.00;99.90;;;;;;5278320;28;20989;-48
2023/01/05 12:51:21;;;;;;;1.40;1.30;;;10.10;99.90;;;;;;5265955;28;20433;-51
2023/01/05 12:54:29;;;;;;;2.70;1.00;;;10.10;99.90;;;;;;5266245;28;20461;-53
2023/01/05 12:57:07;;;;;;;6.87;1.10;;;9.90;99.90;;;;;;5267083;28;20442;-50
2023/01/05 13:00:12;;;;;;;3.40;1.27;;;10.00;99.90;;;;;;5277715;28;20533;-48
2023/01/05 13:02:59;;;;;;;6.17;1.90;;;9.90;99.90;;;;;;5268582;28;20469;-48
2023/01/05 13:05:38;;;;;;;7.93;3.60;;;10.10;99.90;;;;;;5267541;28;20896;-50
2023/01/05 13:08:30;;;;;;;0.93;0.50;;;10.00;99.90;;;;;;5267006;28;20447;-52
2023/01/05 13:11:20;;;;;;;1.90;1.20;;;9.80;99.90;;;;;;5269413;28;20451;-52
2023/01/05 13:13:54;;;;;;;3.17;1.23;;;9.80;99.90;;;;;;5250178;28;20459;-52
2023/01/05 13:16:36;;;;;;;1.90;0.73;;;9.70;99.90;;;;;;5263540;28;20438;-50
2023/01/05 13:19:54;;;;;;;1.27;0.80;;;9.60;99.90;;;;;;5262617;28;20550;-50
2023/01/05 13:22:30;;;;;;;7.13;1.23;;;9.60;99.90;;;;;;5210340;28;20502;-52
2023/01/05 13:25:08;;;;;;;2.70;1.27;;;9.70;99.90;;;;;;5257632;28;20451;-50
2023/01/05 13:27:38;;;;;;;4.57;1.90;;;9.60;99.90;;;;;;5256854;28;20463;-51
2023/01/05 13:30:25;;;;;;;3.40;1.10;;;9.50;99.90;;;;;;5257823;28;20447;-49
2023/01/05 13:32:58;;;;;;;4.47;0.50;;;9.70;99.90;;;;;;5264671;28;20184;-51
2023/01/05 13:35:41;;;;;;;2.77;1.23;;;9.80;99.90;;;;;;5256410;28;20464;-51
2023/01/05 13:38:28;;;;;;;3.13;0.80;;;9.70;99.90;;;;;;5261055;28;20550;-50
2023/01/05 13:41:13;;;;;;;2.67;0.80;;;9.60;99.90;;;;;;5255879;28;20467;-52
2023/01/05 13:44:05;;;;;;;0.60;0.60;;;9.70;99.90;;;;;;5281539;27;20573;-51
2023/01/05 13:47:01;;;;;;;6.17;1.07;;;9.50;99.90;;;;;;5261391;28;20431;-51
2023/01/05 13:49:40;;;;;;;3.37;1.30;;;9.60;99.90;;;;;;5258704;28;20455;-50
2023/01/05 13:52:49;;;;;;;2.00;0.63;;;9.50;99.90;;;;;;5260723;28;20439;-49
2023/01/05 13:55:21;;;;;;;1.70;1.10;;;9.40;99.90;;;;;;5257113;28;20939;-51
2023/01/05 13:57:56;;;;;;;10.30;2.00;;;9.30;99.90;;;;;;5265975;28;20480;-51
2023/01/05 14:00:34;;;;;;;4.30;1.13;;;9.20;99.90;;;;;;5265752;28;20454;-49
2023/01/05 14:03:08;;;;;;;1.60;1.20;;;9.10;99.90;;;;;;5258486;28;20994;-51
2023/01/05 14:05:54;;;;;;;2.77;1.00;;;9.10;99.90;;;;;;5265490;28;20438;-50
2023/01/05 14:08:34;;;;;;;9.10;1.40;;;8.90;99.90;;;;;;5261892;28;20505;-52
2023/01/05 14:11:17;;;;;;;7.50;0.77;;;8.80;99.90;;;;;;5255931;28;20541;-51
2023/01/05 14:14:03;;;;;;;4.53;1.17;;;8.70;99.90;;;;;;5254204;28;20439;-50
2023/01/05 14:16:34;;;;;;;0.93;0.93;;;8.50;99.90;;;;;;5268002;28;20435;-50
2023/01/05 14:19:14;;;;;;;1.20;0.70;;;8.40;99.90;;;;;;5259681;28;20448;-51